AZI1419 LGRP-LGSK
Flight info
| Callsign | AZI1419 |
|---|---|
| Flight time | N/A |
| Altitude | 30000 |
| Route | VANES UM601 ADESO UN133 KOROS/N0409F240 W58 SKP |
| Aircraft | A320/M-SDE3FGHIRWY/LB1 |
Departure
| Time | N/A |
|---|---|
| Airport | Rhodes International Airport "Diagoras" (LGRP) |
Arrival
| Time | 2026-04-30 18:41 |
|---|---|
| Airport | Skiathos Island National Airport (LGSK) |
| Time | Latitude | Longitude | Altitude | Speed | Heading |
|---|---|---|---|---|---|
| 2026-04-30 18:06 | 36.85961 | 26.31984 | 30011 ft | 471 kts | 334° |
| 2026-04-30 18:07 | 36.98021 | 26.24880 | 30009 ft | 482 kts | 334° |
| 2026-04-30 18:08 | 37.07085 | 26.19384 | 30003 ft | 482 kts | 333° |
| 2026-04-30 18:10 | 37.31196 | 26.04578 | 30005 ft | 482 kts | 334° |
| 2026-04-30 18:11 | 37.52293 | 25.91587 | 30003 ft | 482 kts | 333° |
| 2026-04-30 18:13 | 37.67343 | 25.82241 | 30003 ft | 482 kts | 333° |
| 2026-04-30 18:14 | 37.82399 | 25.72861 | 30007 ft | 483 kts | 333° |
| 2026-04-30 18:15 | 38.00470 | 25.61545 | 30017 ft | 483 kts | 333° |
| 2026-04-30 18:16 | 38.12479 | 25.53990 | 30018 ft | 483 kts | 333° |
| 2026-04-30 18:17 | 38.18504 | 25.50182 | 30024 ft | 483 kts | 333° |
| 2026-04-30 18:18 | 38.27536 | 25.44471 | 30032 ft | 483 kts | 333° |
| 2026-04-30 18:18 | 38.33557 | 25.40656 | 30019 ft | 483 kts | 333° |
| 2026-04-30 18:19 | 38.39573 | 25.36841 | 30022 ft | 483 kts | 333° |
| 2026-04-30 18:19 | 38.45587 | 25.33018 | 30024 ft | 483 kts | 333° |
| 2026-04-30 18:20 | 38.51610 | 25.29176 | 30025 ft | 483 kts | 333° |
| 2026-04-30 18:20 | 38.57622 | 25.25330 | 30014 ft | 483 kts | 333° |
| 2026-04-30 18:21 | 38.63632 | 25.21484 | 30025 ft | 483 kts | 333° |
| 2026-04-30 18:21 | 38.69607 | 25.17659 | 30025 ft | 483 kts | 333° |
| 2026-04-30 18:22 | 38.75613 | 25.13793 | 30014 ft | 483 kts | 333° |
| 2026-04-30 18:22 | 38.84045 | 25.06922 | 30021 ft | 482 kts | 310° |
| 2026-04-30 18:23 | 38.85898 | 25.03356 | 30020 ft | 481 kts | 296° |
| 2026-04-30 18:23 | 38.87165 | 24.99391 | 30008 ft | 481 kts | 291° |
| 2026-04-30 18:23 | 38.88358 | 24.95382 | 29646 ft | 476 kts | 290° |
| 2026-04-30 18:23 | 38.89519 | 24.91429 | 28513 ft | 471 kts | 290° |
| 2026-04-30 18:24 | 38.91751 | 24.83779 | 26091 ft | 452 kts | 290° |
| 2026-04-30 18:24 | 38.92849 | 24.80010 | 24893 ft | 450 kts | 290° |
| 2026-04-30 18:24 | 38.93953 | 24.76203 | 23691 ft | 448 kts | 290° |
| 2026-04-30 18:25 | 38.95038 | 24.72476 | 22726 ft | 442 kts | 290° |
| 2026-04-30 18:25 | 38.97176 | 24.65185 | 20961 ft | 437 kts | 290° |
| 2026-04-30 18:25 | 38.98244 | 24.61534 | 20060 ft | 435 kts | 290° |
| 2026-04-30 18:26 | 39.00359 | 24.54299 | 18299 ft | 428 kts | 290° |
| 2026-04-30 18:26 | 39.01396 | 24.50729 | 17438 ft | 425 kts | 290° |
| 2026-04-30 18:26 | 39.02080 | 24.48376 | 16854 ft | 423 kts | 290° |
| 2026-04-30 18:27 | 39.04111 | 24.41323 | 15134 ft | 418 kts | 290° |
| 2026-04-30 18:27 | 39.05114 | 24.37835 | 14326 ft | 414 kts | 290° |
| 2026-04-30 18:28 | 39.07108 | 24.30933 | 12788 ft | 408 kts | 290° |
| 2026-04-30 18:28 | 39.08091 | 24.27525 | 12052 ft | 405 kts | 290° |
| 2026-04-30 18:28 | 39.10005 | 24.20860 | 11166 ft | 381 kts | 290° |
| 2026-04-30 18:29 | 39.10897 | 24.17745 | 11038 ft | 361 kts | 290° |
| 2026-04-30 18:29 | 39.13324 | 24.09254 | 10658 ft | 316 kts | 290° |
| 2026-04-30 18:30 | 39.14778 | 24.04135 | 10384 ft | 294 kts | 290° |
| 2026-04-30 18:30 | 39.15870 | 23.99157 | 9910 ft | 285 kts | 275° |
| 2026-04-30 18:31 | 39.16016 | 23.96605 | 9786 ft | 286 kts | 274° |
| 2026-04-30 18:31 | 39.16322 | 23.91500 | 9477 ft | 286 kts | 274° |
| 2026-04-30 18:32 | 39.16632 | 23.86398 | 8726 ft | 285 kts | 274° |
| 2026-04-30 18:32 | 39.16784 | 23.83846 | 8350 ft | 285 kts | 274° |
| 2026-04-30 18:32 | 39.17077 | 23.78797 | 7572 ft | 278 kts | 274° |
| 2026-04-30 18:33 | 39.17222 | 23.76331 | 7181 ft | 275 kts | 274° |
| 2026-04-30 18:33 | 39.17505 | 23.71431 | 6426 ft | 274 kts | 274° |
| 2026-04-30 18:33 | 39.17644 | 23.68978 | 6048 ft | 275 kts | 274° |
| 2026-04-30 18:34 | 39.17783 | 23.66522 | 5666 ft | 275 kts | 274° |
| 2026-04-30 18:34 | 39.17118 | 23.61814 | 4919 ft | 275 kts | 236° |
| 2026-04-30 18:34 | 39.15766 | 23.60099 | 4511 ft | 276 kts | 212° |
| 2026-04-30 18:35 | 39.14063 | 23.58954 | 4105 ft | 276 kts | 207° |
| 2026-04-30 18:35 | 39.12343 | 23.57841 | 3782 ft | 274 kts | 207° |
| 2026-04-30 18:35 | 39.10660 | 23.56750 | 3545 ft | 268 kts | 207° |
| 2026-04-30 18:36 | 39.07390 | 23.54623 | 3080 ft | 259 kts | 207° |
| 2026-04-30 18:36 | 39.05797 | 23.53587 | 2844 ft | 254 kts | 207° |
| 2026-04-30 18:36 | 39.02768 | 23.51465 | 2423 ft | 238 kts | 224° |
| 2026-04-30 18:37 | 39.02020 | 23.49728 | 2298 ft | 216 kts | 263° |
| 2026-04-30 18:37 | 39.02264 | 23.47948 | 2194 ft | 198 kts | 301° |
| 2026-04-30 18:37 | 39.03227 | 23.46753 | 2099 ft | 193 kts | 334° |
| 2026-04-30 18:37 | 39.04526 | 23.46488 | 1971 ft | 191 kts | 8° |
| 2026-04-30 18:38 | 39.05821 | 23.46853 | 1859 ft | 187 kts | 12° |
| 2026-04-30 18:38 | 39.07045 | 23.47211 | 1747 ft | 173 kts | 12° |
| 2026-04-30 18:38 | 39.08162 | 23.47537 | 1656 ft | 156 kts | 12° |
| 2026-04-30 18:38 | 39.09201 | 23.47786 | 1447 ft | 149 kts | 6° |
| 2026-04-30 18:39 | 39.10218 | 23.47903 | 1196 ft | 145 kts | 3° |
| 2026-04-30 18:39 | 39.11219 | 23.48002 | 891 ft | 144 kts | 4° |
| 2026-04-30 18:39 | 39.12218 | 23.48154 | 522 ft | 147 kts | 8° |
| 2026-04-30 18:39 | 39.13201 | 23.48416 | 348 ft | 143 kts | 14° |
| 2026-04-30 18:40 | 39.14153 | 23.48779 | 271 ft | 143 kts | 17° |
| 2026-04-30 18:40 | 39.15092 | 23.49181 | 200 ft | 142 kts | 19° |
| 2026-04-30 18:40 | 39.16026 | 23.49615 | 133 ft | 143 kts | 19° |
| 2026-04-30 18:40 | 39.16963 | 23.50034 | 57 ft | 144 kts | 18° |
| 2026-04-30 18:41 | 39.17693 | 23.50354 | 41 ft | 57 kts | 21° |
| 2026-04-30 18:41 | 39.17911 | 23.50439 | 39 ft | 16 kts | 341° |
| 2026-04-30 18:41 | 39.17930 | 23.50370 | 42 ft | 8 kts | 257° |
| 2026-04-30 18:41 | 39.17877 | 23.50314 | 40 ft | 12 kts | 199° |
| 2026-04-30 18:42 | 39.17783 | 23.50279 | 39 ft | 16 kts | 195° |
| 2026-04-30 18:42 | 39.17758 | 23.50255 | 38 ft | 1 kts | 313° |
| 2026-04-30 18:42 | 39.17768 | 23.50267 | 34 ft | 5 kts | 40° |
| 2026-04-30 18:45 | 39.17838 | 23.50205 | 39 ft | 0 kts | 285° |